Time;durP1;ratioP1;P1;durP2;ratioP2;P2;SDS_P1;SDS_P2;PMS_P1;PMS_P2;Temp;Humidity;BMP_temperature;BMP_pressure;BME280_temperature;BME280_humidity;BME280_pressure;Samples;Min_cycle;Max_cycle;Signal;HPM_P1;HPM_P2
2021/12/09 00:00:34;;;;;;;95.12;45.20;;;;;;;-4.22;82.91;99830.45;1449990;89;21449;-88
2021/12/09 00:03:05;;;;;;;97.42;46.63;;;;;;;-4.20;82.70;99827.77;1451357;89;21956;-87
2021/12/09 00:05:30;;;;;;;108.55;47.88;;;;;;;-4.20;82.81;99831.65;1449516;89;21589;-89
2021/12/09 00:07:57;;;;;;;95.05;46.73;;;;;;;-4.23;83.62;99839.11;1449682;89;21434;-88
2021/12/09 00:10:25;;;;;;;99.00;44.77;;;;;;;-4.24;83.85;99843.88;1448508;89;21397;-88
2021/12/09 00:12:53;;;;;;;103.62;46.95;;;;;;;-4.25;84.73;99847.84;1449916;89;21433;-90
2021/12/09 00:15:20;;;;;;;105.92;48.38;;;;;;;-4.22;84.53;99843.82;1448773;89;21500;-89
2021/12/09 00:17:48;;;;;;;109.05;49.27;;;;;;;-4.21;84.78;99848.91;1450177;90;21300;-89
2021/12/09 00:20:16;;;;;;;103.47;48.92;;;;;;;-4.15;84.79;99849.92;1452213;89;21570;-91
2021/12/09 00:22:43;;;;;;;101.90;48.85;;;;;;;-4.10;84.51;99840.22;1452277;89;21577;-91
2021/12/09 00:25:11;;;;;;;104.72;46.73;;;;;;;-4.03;84.54;99843.81;1451906;89;23309;-88
2021/12/09 00:27:38;;;;;;;97.65;46.85;;;;;;;-4.04;83.78;99848.61;1449223;90;21575;-88
2021/12/09 00:30:07;;;;;;;98.65;48.05;;;;;;;-4.06;83.56;99850.42;1434001;90;21375;-88
2021/12/09 00:32:36;;;;;;;90.15;40.98;;;;;;;-4.06;83.48;99847.83;1453479;90;21531;-89
2021/12/09 00:35:05;;;;;;;85.75;41.68;;;;;;;-4.04;83.43;99834.39;1450045;89;21448;-88
2021/12/09 00:37:38;;;;;;;92.95;43.13;;;;;;;-4.17;81.94;99829.79;1435208;90;21441;-88
2021/12/09 00:40:04;;;;;;;97.37;46.08;;;;;;;-4.27;81.70;99822.52;1428831;91;21951;-87
2021/12/09 00:42:31;;;;;;;88.35;43.90;;;;;;;-4.33;81.94;99819.75;1427810;90;21397;-88
2021/12/09 00:44:59;;;;;;;90.75;44.88;;;;;;;-4.35;82.38;99822.84;1428630;90;21442;-89
2021/12/09 00:47:27;;;;;;;88.97;42.80;;;;;;;-4.37;82.68;99843.59;1427568;90;21426;-89
2021/12/09 00:49:56;;;;;;;95.50;42.73;;;;;;;-4.37;83.29;99849.22;1440746;90;21374;-88
2021/12/09 00:52:24;;;;;;;95.07;45.75;;;;;;;-4.37;83.86;99844.05;1428320;90;21618;-88
2021/12/09 00:54:52;;;;;;;87.62;41.20;;;;;;;-4.40;85.37;99848.03;1436030;90;21441;-89
2021/12/09 00:57:20;;;;;;;84.22;39.83;;;;;;;-4.36;85.16;99850.88;1450247;90;21455;-89
2021/12/09 00:59:48;;;;;;;85.03;42.38;;;;;;;-4.33;85.70;99844.29;1452736;89;21397;-89
2021/12/09 01:02:16;;;;;;;87.67;44.38;;;;;;;-4.32;86.22;99844.66;1450803;89;21441;-88
2021/12/09 01:04:45;;;;;;;93.17;43.13;;;;;;;-4.30;85.59;99842.86;1449065;90;21397;-87
2021/12/09 01:07:13;;;;;;;87.92;44.63;;;;;;;-4.25;85.28;99846.55;1435170;90;21449;-88
2021/12/09 01:09:40;;;;;;;84.30;40.63;;;;;;;-4.19;84.76;99852.73;1438200;90;21456;-88
2021/12/09 01:12:15;;;;;;;88.20;37.15;;;;;;;-4.18;84.27;99862.98;1448666;89;21337;-89
2021/12/09 01:14:44;;;;;;;66.77;34.35;;;;;;;-4.19;83.77;99857.44;1451461;90;21397;-88
2021/12/09 01:17:13;;;;;;;72.12;38.58;;;;;;;-4.15;84.10;99846.05;1449344;89;23272;-87
2021/12/09 01:19:42;;;;;;;68.80;36.53;;;;;;;-4.14;83.87;99829.65;1446796;89;21382;-88
2021/12/09 01:22:10;;;;;;;76.20;36.42;;;;;;;-4.16;83.73;99827.58;1447722;90;21589;-87
2021/12/09 01:24:37;;;;;;;65.47;32.63;;;;;;;-4.21;83.08;99830.81;1457487;90;21375;-86
2021/12/09 01:27:05;;;;;;;77.03;35.48;;;;;;;-4.28;84.00;99831.18;1435442;90;21456;-87
2021/12/09 01:29:36;;;;;;;73.67;36.38;;;;;;;-4.29;83.82;99827.73;1449750;90;21496;-87
2021/12/09 01:32:06;;;;;;;69.75;37.15;;;;;;;-4.27;83.83;99823.80;1453409;89;21551;-88
2021/12/09 01:34:36;;;;;;;74.20;35.60;;;;;;;-4.25;83.71;99824.13;1456570;89;21441;-88
2021/12/09 01:37:05;;;;;;;55.92;29.63;;;;;;;-4.27;83.51;99820.77;1419073;92;22277;-88
2021/12/09 01:39:33;;;;;;;83.10;37.60;;;;;;;-4.29;83.28;99821.27;1444652;90;21390;-87
2021/12/09 01:42:01;;;;;;;72.03;35.50;;;;;;;-4.28;83.31;99813.92;1460901;89;21448;-87
2021/12/09 01:44:30;;;;;;;75.62;39.42;;;;;;;-4.24;83.56;99812.87;1418063;92;21375;-86
2021/12/09 01:46:57;;;;;;;66.33;33.92;;;;;;;-4.23;83.49;99818.44;1443466;90;21480;-85
2021/12/09 01:49:25;;;;;;;73.83;38.25;;;;;;;-4.25;83.54;99821.54;1461768;89;21485;-86
2021/12/09 01:51:59;;;;;;;67.95;35.25;;;;;;;-4.21;83.56;99817.06;1418665;92;21565;-86
2021/12/09 01:54:26;;;;;;;71.87;36.80;;;;;;;-4.20;83.61;99822.17;1450798;89;21390;-86
2021/12/09 01:56:53;;;;;;;72.30;36.80;;;;;;;-4.20;84.02;99819.59;1456113;89;21382;-85
2021/12/09 01:59:20;;;;;;;73.45;38.50;;;;;;;-4.18;83.62;99821.63;1417553;92;21345;-86
2021/12/09 02:01:48;;;;;;;69.00;35.48;;;;;;;-4.16;83.16;99809.48;1441783;90;21514;-87
2021/12/09 02:04:15;;;;;;;70.67;35.40;;;;;;;-4.14;83.10;99814.14;1459121;89;21589;-87
2021/12/09 02:06:43;;;;;;;70.40;36.98;;;;;;;-4.16;83.05;99815.95;1435198;89;21330;-87
2021/12/09 02:09:15;;;;;;;68.45;36.00;;;;;;;-4.20;83.44;99815.72;1456077;89;21508;-86
2021/12/09 02:11:43;;;;;;;72.75;37.53;;;;;;;-4.18;83.45;99806.12;1418375;92;21575;-85
2021/12/09 02:14:17;;;;;;;71.37;33.00;;;;;;;-4.24;83.91;99791.36;1439656;90;21618;-85
2021/12/09 02:16:45;;;;;;;64.50;37.23;;;;;;;-4.24;83.94;99799.11;1462971;89;21366;-85
2021/12/09 02:19:14;;;;;;;82.12;38.15;;;;;;;-4.32;83.43;99800.73;1419069;92;21405;-86
2021/12/09 02:21:46;;;;;;;61.95;33.70;;;;;;;-4.37;83.73;99804.01;1419021;90;21837;-85
2021/12/09 02:24:16;;;;;;;65.90;34.58;;;;;;;-4.37;83.99;99807.42;1440852;89;21632;-86
2021/12/09 02:26:49;;;;;;;67.67;38.02;;;;;;;-4.32;83.92;99807.20;1419876;92;21481;-85
2021/12/09 02:29:17;;;;;;;74.90;38.67;;;;;;;-4.37;84.94;99805.30;1443189;90;22343;-85
2021/12/09 02:31:46;;;;;;;70.67;35.60;;;;;;;-4.35;84.63;99806.05;1479761;89;21760;-85
2021/12/09 02:34:13;;;;;;;69.67;34.55;;;;;;;-4.33;84.73;99804.24;1411857;92;21345;-86
2021/12/09 02:36:43;;;;;;;76.25;37.53;;;;;;;-4.42;84.36;99797.74;1459299;89;22889;-86
2021/12/09 02:39:14;;;;;;;67.87;35.70;;;;;;;-4.42;84.08;99802.08;1458733;89;21374;-85
2021/12/09 02:41:43;;;;;;;76.67;37.67;;;;;;;-4.42;84.09;99793.03;1452712;89;21344;-86
2021/12/09 02:44:17;;;;;;;77.30;37.83;;;;;;;-4.51;84.33;99790.41;1457420;89;21382;-86
2021/12/09 02:46:53;;;;;;;66.00;35.52;;;;;;;-4.62;84.73;99792.16;1457224;89;22490;-85
2021/12/09 02:49:26;;;;;;;66.82;37.15;;;;;;;-4.62;84.31;99799.91;1454541;89;21366;-85
2021/12/09 02:51:56;;;;;;;70.10;36.48;;;;;;;-4.61;84.29;99792.54;1459311;89;21396;-88
2021/12/09 02:54:24;;;;;;;71.92;36.35;;;;;;;-4.58;84.52;99795.44;1449196;89;21323;-87
2021/12/09 02:56:56;;;;;;;72.95;36.83;;;;;;;-4.59;84.78;99803.65;1517251;89;22619;-87
2021/12/09 02:59:24;;;;;;;71.70;39.53;;;;;;;-4.58;85.26;99802.73;1386009;89;21449;-87
2021/12/09 03:02:01;;;;;;;73.95;39.42;;;;;;;-4.55;85.28;99801.30;1500982;89;21308;-87
2021/12/09 03:04:54;;;;;;;76.77;39.48;;;;;;;-4.46;85.57;99804.39;1539720;89;21256;-87
2021/12/09 03:07:31;;;;;;;72.22;39.05;;;;;;;-4.42;85.44;99807.24;1465179;89;23418;-88
2021/12/09 03:10:19;;;;;;;79.75;38.17;;;;;;;-4.37;85.32;99804.84;1455910;89;21529;-88
2021/12/09 03:12:43;;;;;;;82.17;38.30;;;;;;;-4.37;85.22;99810.47;1454918;89;21606;-87
2021/12/09 03:15:10;;;;;;;73.15;39.08;;;;;;;-4.34;85.10;99806.45;1457333;89;21541;-87
2021/12/09 03:17:39;;;;;;;70.42;35.25;;;;;;;-4.29;85.04;99801.89;1458278;89;21515;-87
2021/12/09 03:20:15;;;;;;;74.97;38.73;;;;;;;-4.24;85.07;99803.83;1458822;89;21610;-88
2021/12/09 03:22:43;;;;;;;75.05;39.33;;;;;;;-4.21;84.56;99790.77;1459211;89;22365;-87
2021/12/09 03:25:15;;;;;;;66.95;34.45;;;;;;;-4.19;84.04;99787.66;1460151;89;21640;-87
2021/12/09 03:27:45;;;;;;;65.83;34.80;;;;;;;-4.21;83.45;99786.89;1456785;89;21552;-88
2021/12/09 03:30:17;;;;;;;67.08;33.67;;;;;;;-4.21;83.63;99785.59;1456715;89;21574;-88
2021/12/09 03:32:45;;;;;;;66.80;35.30;;;;;;;-4.23;83.44;99782.27;1456230;89;21490;-89
2021/12/09 03:35:15;;;;;;;76.25;40.30;;;;;;;-4.25;83.61;99776.32;1461205;89;21676;-89
2021/12/09 03:37:44;;;;;;;74.17;36.50;;;;;;;-4.26;83.75;99783.66;1438638;89;21448;-89
2021/12/09 03:40:13;;;;;;;69.00;33.90;;;;;;;-4.28;83.73;99780.80;1420082;92;21489;-87
2021/12/09 03:42:41;;;;;;;66.45;34.15;;;;;;;-4.32;84.46;99782.20;1435618;90;22404;-86
2021/12/09 03:45:10;;;;;;;68.75;33.75;;;;;;;-4.42;85.46;99781.41;1458274;89;21492;-89
2021/12/09 03:47:38;;;;;;;58.40;33.25;;;;;;;-4.50;86.06;99779.62;1489885;92;21412;-90
2021/12/09 03:50:10;;;;;;;66.33;35.98;;;;;;;-4.63;87.40;99787.05;1439312;90;21354;-90
2021/12/09 03:52:38;;;;;;;67.00;32.70;;;;;;;-4.60;86.75;99801.98;1464298;89;22270;-89
2021/12/09 03:55:07;;;;;;;68.85;30.70;;;;;;;-4.64;87.53;99800.42;1497952;92;21347;-90
2021/12/09 03:57:35;;;;;;;69.05;34.58;;;;;;;-4.76;88.75;99801.80;1522064;90;21258;-89
2021/12/09 04:00:08;;;;;;;63.85;34.00;;;;;;;-4.76;88.87;99804.84;1541920;89;21220;-89
2021/12/09 04:02:36;;;;;;;66.57;35.52;;;;;;;-4.78;89.37;99806.63;1541967;89;21234;-90
2021/12/09 04:05:04;;;;;;;68.87;36.08;;;;;;;-4.79;89.96;99804.97;1541905;89;21286;-89
2021/12/09 04:07:33;;;;;;;66.55;33.88;;;;;;;-4.80;89.79;99803.30;1438309;89;22846;-89
2021/12/09 04:10:02;;;;;;;60.40;33.65;;;;;;;-4.82;90.05;99799.94;1537827;89;22680;-90
2021/12/09 04:12:29;;;;;;;76.12;39.48;;;;;;;-4.84;90.10;99788.83;1393862;92;21553;-88
2021/12/09 04:14:56;;;;;;;68.15;33.65;;;;;;;-4.80;89.84;99782.65;1416672;90;21463;-88
2021/12/09 04:17:24;;;;;;;67.97;37.40;;;;;;;-4.72;89.96;99776.67;1437593;89;23487;-90
2021/12/09 04:19:51;;;;;;;69.75;37.20;;;;;;;-4.63;89.73;99775.43;1418587;92;21538;-89
2021/12/09 04:22:20;;;;;;;104.53;45.33;;;;;;;-4.57;89.81;99766.98;1436087;90;21441;-89
2021/12/09 04:24:51;;;;;;;69.62;35.35;;;;;;;-4.49;89.92;99749.00;1439377;90;22446;-88
2021/12/09 04:27:20;;;;;;;78.00;36.03;;;;;;;-4.43;90.02;99743.55;1462504;89;21618;-87
2021/12/09 04:29:49;;;;;;;61.28;32.53;;;;;;;-4.43;90.12;99750.88;1416138;92;21434;-87
2021/12/09 04:32:16;;;;;;;77.97;34.70;;;;;;;-4.42;89.88;99762.03;1418626;91;21469;-87
2021/12/09 04:34:54;;;;;;;61.45;29.92;;;;;;;-4.39;89.74;99747.23;1397159;92;21427;-87
2021/12/09 04:37:25;;;;;;;60.50;32.42;;;;;;;-4.33;90.20;99757.73;1438269;90;21512;-89
2021/12/09 04:39:52;;;;;;;60.20;33.78;;;;;;;-4.24;89.98;99756.48;1411996;92;21345;-89
2021/12/09 04:42:19;;;;;;;66.12;31.20;;;;;;;-4.17;89.98;99753.98;1406691;91;21449;-88
2021/12/09 04:44:47;;;;;;;65.60;31.27;;;;;;;-4.12;89.59;99750.73;1396558;92;21560;-88
2021/12/09 04:47:14;;;;;;;100.05;40.33;;;;;;;-4.07;89.27;99737.61;1431531;90;21552;-89
2021/12/09 04:49:47;;;;;;;271.05;90.10;;;;;;;-4.02;89.19;99744.70;1419251;92;21656;-87
2021/12/09 04:52:15;;;;;;;326.77;107.45;;;;;;;-3.99;89.44;99747.14;1417868;91;21510;-89
2021/12/09 04:54:43;;;;;;;438.22;167.10;;;;;;;-3.96;89.17;99753.45;1415975;92;21501;-88
2021/12/09 04:57:13;;;;;;;808.33;328.35;;;;;;;-3.95;89.01;99751.24;1415864;92;21523;-89
2021/12/09 04:59:41;;;;;;;378.65;135.93;;;;;;;-3.92;88.91;99754.97;1437754;91;21576;-88
2021/12/09 05:02:14;;;;;;;378.62;154.85;;;;;;;-3.88;89.06;99744.42;1416665;92;21581;-88
2021/12/09 05:04:38;;;;;;;339.38;142.03;;;;;;;-3.84;89.00;99741.23;1437370;90;22538;-88
2021/12/09 05:07:05;;;;;;;420.88;168.35;;;;;;;-3.81;88.45;99741.09;1420930;92;21331;-88
2021/12/09 05:09:38;;;;;;;151.72;63.78;;;;;;;-3.78;88.51;99747.40;1437865;91;21525;-89
2021/12/09 05:12:05;;;;;;;207.47;88.37;;;;;;;-3.76;88.38;99736.53;1401089;92;21493;-89
2021/12/09 05:14:32;;;;;;;411.77;180.05;;;;;;;-3.77;88.52;99727.55;1438350;91;22227;-88
2021/12/09 05:17:01;;;;;;;165.80;71.33;;;;;;;-3.75;88.93;99729.15;1395237;92;22832;-88
2021/12/09 05:19:29;;;;;;;307.05;127.38;;;;;;;-3.71;88.67;99719.48;1435615;91;21526;-89
2021/12/09 05:21:56;;;;;;;351.90;150.32;;;;;;;-3.72;88.64;99723.83;1418396;92;21410;-88
2021/12/09 05:24:24;;;;;;;510.87;238.60;;;;;;;-3.66;88.87;99723.98;1437406;91;21414;-89
2021/12/09 05:26:54;;;;;;;114.88;54.50;;;;;;;-3.65;88.84;99735.56;1363399;92;21508;-89
2021/12/09 05:29:28;;;;;;;154.25;67.75;;;;;;;-3.64;88.49;99744.98;1432883;91;21611;-88
2021/12/09 05:34:43;;;;;;;50.05;28.85;;;;;;;-3.59;88.68;99742.19;1438193;91;21427;-89
2021/12/09 05:37:20;;;;;;;47.38;27.55;;;;;;;-3.67;89.43;99745.14;1413700;91;21606;-89
2021/12/09 05:39:50;;;;;;;110.52;50.08;;;;;;;-3.70;89.40;99750.45;1426389;91;21597;-88
2021/12/09 05:42:20;;;;;;;48.33;28.55;;;;;;;-3.80;90.34;99738.87;1459683;89;21603;-89
2021/12/09 05:44:48;;;;;;;44.23;27.50;;;;;;;-3.86;91.50;99749.51;1541088;89;21411;-90
2021/12/09 05:47:16;;;;;;;53.08;29.00;;;;;;;-3.89;91.75;99754.36;1507943;89;21388;-88
2021/12/09 05:49:47;;;;;;;58.63;30.82;;;;;;;-3.87;92.03;99760.77;1457044;89;21544;-88
2021/12/09 05:52:17;;;;;;;46.23;26.68;;;;;;;-3.86;91.83;99768.44;1458463;89;22238;-88
2021/12/09 05:54:45;;;;;;;48.75;25.35;;;;;;;-3.96;94.16;99770.27;1441022;89;21418;-87
2021/12/09 05:57:13;;;;;;;72.15;37.88;;;;;;;-3.96;94.46;99777.55;1456199;89;21477;-87
2021/12/09 05:59:41;;;;;;;113.08;49.67;;;;;;;-3.88;93.54;99763.82;1458350;89;21433;-87
2021/12/09 06:02:16;;;;;;;279.30;112.83;;;;;;;-3.79;93.08;99761.25;1461980;89;21329;-87
2021/12/09 06:04:44;;;;;;;231.60;95.45;;;;;;;-3.67;92.76;99757.23;1458736;89;21542;-87
2021/12/09 06:07:12;;;;;;;109.20;49.73;;;;;;;-3.58;92.99;99752.91;1444305;89;21396;-86
2021/12/09 06:09:40;;;;;;;85.38;43.13;;;;;;;-3.52;93.08;99750.48;1442619;89;21440;-86
2021/12/09 06:12:17;;;;;;;78.83;40.40;;;;;;;-3.44;92.61;99729.78;1457459;89;21610;-87
2021/12/09 06:14:44;;;;;;;96.15;46.55;;;;;;;-3.36;92.24;99715.18;1458736;89;21389;-87
2021/12/09 06:17:11;;;;;;;77.10;38.90;;;;;;;-3.27;92.30;99714.71;1458030;89;21373;-88
2021/12/09 06:19:39;;;;;;;94.67;46.25;;;;;;;-3.22;92.23;99715.33;1441214;89;21440;-88
2021/12/09 06:22:06;;;;;;;125.53;58.52;;;;;;;-3.19;92.26;99716.92;1458539;89;21557;-88
2021/12/09 06:24:40;;;;;;;120.90;58.45;;;;;;;-3.17;92.09;99719.78;1461131;89;21562;-88
2021/12/09 06:27:07;;;;;;;89.55;44.45;;;;;;;-3.10;91.91;99721.63;1452597;89;21500;-88
2021/12/09 06:29:35;;;;;;;69.92;37.70;;;;;;;-3.05;92.09;99731.72;1455919;89;21581;-89
2021/12/09 06:32:03;;;;;;;81.87;41.68;;;;;;;-2.99;91.81;99741.80;1455599;89;21603;-88
2021/12/09 06:34:30;;;;;;;56.90;28.95;;;;;;;-2.96;91.56;99741.64;1443857;89;21655;-88
2021/12/09 06:37:04;;;;;;;92.67;45.98;;;;;;;-2.97;91.98;99740.77;1438997;90;23501;-88
2021/12/09 06:39:31;;;;;;;63.83;34.85;;;;;;;-2.89;91.39;99742.15;1443803;90;22166;-88
2021/12/09 06:41:58;;;;;;;75.60;42.43;;;;;;;-2.85;91.55;99736.74;1438038;90;21647;-88
2021/12/09 06:44:26;;;;;;;107.17;54.65;;;;;;;-2.78;91.27;99738.08;1440593;90;21344;-88
2021/12/09 06:46:55;;;;;;;63.95;34.70;;;;;;;-2.69;91.30;99743.24;1439257;90;21574;-86
2021/12/09 06:49:24;;;;;;;65.92;36.85;;;;;;;-2.63;91.05;99740.78;1442281;90;21557;-86
2021/12/09 06:51:51;;;;;;;70.67;37.48;;;;;;;-2.58;90.58;99740.92;1421174;90;21300;-84
2021/12/09 06:54:21;;;;;;;78.35;41.05;;;;;;;-2.56;90.26;99742.98;1423593;90;21388;-85
2021/12/09 06:56:55;;;;;;;134.20;66.40;;;;;;;-2.46;90.30;99743.32;1443118;90;21562;-85
2021/12/09 06:59:22;;;;;;;56.50;31.20;;;;;;;-2.37;90.31;99746.70;1439843;90;21500;-85
2021/12/09 07:01:50;;;;;;;67.80;36.15;;;;;;;-2.36;89.60;99762.66;1441434;90;21462;-84
2021/12/09 07:04:18;;;;;;;70.05;38.98;;;;;;;-2.31;89.44;99768.88;1441776;90;21433;-84
2021/12/09 07:06:45;;;;;;;55.03;31.95;;;;;;;-2.23;89.29;99764.59;1438711;90;21435;-85
2021/12/09 07:09:13;;;;;;;86.90;46.83;;;;;;;-2.22;88.97;99757.17;1439655;90;21580;-87
2021/12/09 07:11:45;;;;;;;80.35;42.83;;;;;;;-2.22;88.87;99758.47;1422545;90;21507;-87
2021/12/09 07:14:11;;;;;;;83.00;46.70;;;;;;;-2.19;88.79;99749.23;1444712;90;21558;-85
2021/12/09 07:16:38;;;;;;;89.85;47.38;;;;;;;-2.15;88.86;99754.17;1440618;90;21434;-85
2021/12/09 07:19:06;;;;;;;62.40;36.42;;;;;;;-2.08;88.78;99743.00;1447241;90;21417;-85
2021/12/09 07:21:33;;;;;;;79.47;45.28;;;;;;;-2.00;88.75;99729.63;1442139;90;21389;-85
2021/12/09 07:24:01;;;;;;;68.60;37.08;;;;;;;-1.93;88.79;99731.77;1446492;90;21381;-89
2021/12/09 07:26:30;;;;;;;63.35;37.95;;;;;;;-1.88;88.44;99732.82;1442893;90;21388;-87
2021/12/09 07:28:58;;;;;;;62.50;35.98;;;;;;;-1.82;87.98;99724.69;1437022;90;21455;-88
2021/12/09 07:31:27;;;;;;;68.35;37.88;;;;;;;-1.74;87.85;99731.59;1438132;90;21492;-88
2021/12/09 07:33:56;;;;;;;65.90;36.10;;;;;;;-1.68;87.72;99744.20;1441102;89;21491;-88
2021/12/09 07:36:25;;;;;;;62.50;33.75;;;;;;;-1.61;87.45;99749.91;1439558;90;21381;-89
2021/12/09 07:38:57;;;;;;;57.35;35.70;;;;;;;-1.61;86.71;99747.31;1443542;90;21481;-88
2021/12/09 07:41:26;;;;;;;58.75;31.80;;;;;;;-1.62;86.58;99742.56;1437630;90;21499;-88
2021/12/09 07:43:54;;;;;;;59.93;33.30;;;;;;;-1.63;86.28;99741.37;1444803;90;21506;-88
2021/12/09 07:46:21;;;;;;;61.05;34.08;;;;;;;-1.65;86.40;99739.31;1444294;90;22297;-87
2021/12/09 07:48:48;;;;;;;61.63;34.98;;;;;;;-1.60;86.78;99722.56;1446372;90;22004;-89
2021/12/09 07:51:16;;;;;;;61.80;35.35;;;;;;;-1.48;87.16;99722.31;1434260;90;21640;-88
2021/12/09 07:53:43;;;;;;;60.43;34.95;;;;;;;-1.41;87.34;99726.25;1446841;90;21597;-88
2021/12/09 07:56:10;;;;;;;70.83;42.40;;;;;;;-1.29;87.45;99716.08;1440857;90;21374;-88
2021/12/09 07:58:37;;;;;;;88.33;47.08;;;;;;;-1.18;87.31;99712.36;1441504;90;21367;-88
2021/12/09 08:01:07;;;;;;;213.18;93.05;;;;;;;-1.16;87.07;99706.62;1444884;90;21403;-88
2021/12/09 08:03:34;;;;;;;194.25;96.08;;;;;;;-1.10;87.01;99706.25;1438653;90;21506;-87
2021/12/09 08:06:02;;;;;;;223.97;115.52;;;;;;;-1.06;87.17;99712.95;1446220;90;21922;-88
2021/12/09 08:08:29;;;;;;;71.57;38.63;;;;;;;-1.09;87.66;99705.34;1440306;90;21404;-87
2021/12/09 08:10:56;;;;;;;290.62;148.93;;;;;;;-1.04;87.91;99695.49;1437568;90;21411;-87
2021/12/09 08:13:23;;;;;;;157.47;81.13;;;;;;;-0.92;88.30;99699.97;1444201;90;21389;-87
2021/12/09 08:15:53;;;;;;;205.10;103.70;;;;;;;-0.76;88.45;99689.47;1445318;90;21599;-87
2021/12/09 08:20:51;;;;;;;117.87;61.93;;;;;;;-0.54;88.86;99676.00;1451363;89;22131;-87
2021/12/09 08:23:19;;;;;;;64.85;37.50;;;;;;;-0.48;88.60;99678.21;1435359;90;22582;-87
2021/12/09 08:25:49;;;;;;;63.33;37.33;;;;;;;-0.33;88.67;99683.38;1440893;89;21595;-86
2021/12/09 08:28:21;;;;;;;68.33;39.57;;;;;;;-0.24;88.92;99675.00;1412411;89;21677;-88
2021/12/09 08:30:50;;;;;;;70.07;40.87;;;;;;;-0.14;89.03;99666.98;1515441;89;21708;-87
2021/12/09 08:33:21;;;;;;;85.37;49.43;;;;;;;-0.02;88.96;99669.27;1461978;89;21613;-88
2021/12/09 08:35:51;;;;;;;56.43;33.57;;;;;;;0.12;88.33;99658.80;1443864;89;21687;-88
2021/12/09 08:38:20;;;;;;;51.60;32.87;;;;;;;0.26;88.38;99646.20;1500102;89;21523;-87
2021/12/09 08:43:15;;;;;;;50.20;29.93;;;;;;;0.41;87.42;99643.03;1441516;90;21841;-91
2021/12/09 08:45:44;;;;;;;59.80;36.63;;;;;;;0.44;87.12;99651.94;1417595;91;22720;-92
2021/12/09 08:48:11;;;;;;;61.37;33.37;;;;;;;0.46;86.87;99648.75;1408627;90;21633;-91
2021/12/09 08:50:43;;;;;;;47.87;30.77;;;;;;;0.47;86.84;99639.20;1417052;90;21693;-92
2021/12/09 08:53:14;;;;;;;48.13;29.40;;;;;;;0.50;86.84;99646.80;1413074;90;23482;-88
2021/12/09 08:55:43;;;;;;;52.87;31.30;;;;;;;0.58;86.97;99666.18;1398384;91;21860;-88
2021/12/09 08:58:12;;;;;;;55.53;33.00;;;;;;;0.69;86.81;99678.45;1444884;90;21691;-88
2021/12/09 09:00:41;;;;;;;55.87;32.80;;;;;;;0.76;86.48;99686.72;1428759;90;21662;-88
2021/12/09 09:03:08;;;;;;;53.33;30.57;;;;;;;0.82;86.31;99678.01;1423513;91;21478;-86
2021/12/09 09:05:38;;;;;;;58.27;32.10;;;;;;;0.90;86.09;99670.52;1427898;91;21721;-88
2021/12/09 09:08:06;;;;;;;57.60;34.53;;;;;;;0.99;85.86;99666.91;1451350;92;22829;-89
2021/12/09 09:10:38;;;;;;;63.73;36.00;;;;;;;1.08;85.44;99672.80;1488045;92;21650;-88
2021/12/09 09:13:05;;;;;;;72.30;42.17;;;;;;;1.16;85.42;99669.67;1449256;92;21556;-85
2021/12/09 09:15:33;;;;;;;55.97;32.70;;;;;;;1.25;85.15;99662.03;1409666;92;21752;-87
2021/12/09 09:18:01;;;;;;;54.30;31.90;;;;;;;1.29;84.65;99658.26;1411126;92;22120;-88
2021/12/09 09:20:31;;;;;;;62.17;37.27;;;;;;;1.38;84.53;99656.78;1407367;92;21657;-88
2021/12/09 09:22:59;;;;;;;91.15;50.38;;;;;;;1.45;84.25;99646.77;1409073;92;21701;-87
2021/12/09 09:25:29;;;;;;;86.43;48.77;;;;;;;1.47;83.93;99633.98;1406912;92;21583;-88
2021/12/09 09:28:00;;;;;;;82.35;46.05;;;;;;;1.50;83.54;99625.13;1416836;89;23703;-91
2021/12/09 09:30:36;;;;;;;65.67;38.55;;;;;;;1.53;83.69;99608.77;1432550;91;22395;-91
2021/12/09 09:33:06;;;;;;;84.40;48.97;;;;;;;1.57;83.71;99598.47;1440281;90;21404;-92
2021/12/09 09:35:34;;;;;;;55.37;34.27;;;;;;;1.55;83.64;99595.16;1429262;91;21774;-91
2021/12/09 09:38:02;;;;;;;59.60;34.77;;;;;;;1.52;83.52;99600.56;1437135;90;21669;-91
2021/12/09 09:40:49;;;;;;;79.40;44.57;;;;;;;1.58;83.62;99601.91;1441387;91;21647;-90
2021/12/09 09:43:54;;;;;;;98.23;57.27;;;;;;;1.53;83.54;99597.52;1434756;90;21789;-92
2021/12/09 09:46:05;;;;;;;81.37;48.90;;;;;;;1.52;83.83;99599.74;1433389;90;21909;-92
2021/12/09 09:48:39;;;;;;;72.03;43.77;;;;;;;1.57;83.94;99588.52;1425631;91;21772;-93
2021/12/09 09:51:09;;;;;;;61.27;35.93;;;;;;;1.68;84.22;99571.62;1429334;91;21781;-93
2021/12/09 09:53:46;;;;;;;84.83;48.80;;;;;;;1.97;84.38;99571.25;1440053;91;21807;-93
2021/12/09 09:56:19;;;;;;;60.37;35.77;;;;;;;2.48;83.79;99569.12;1432375;91;21508;-93
2021/12/09 09:58:51;;;;;;;58.97;37.10;;;;;;;2.48;83.79;99569.12;1446079;90;22100;-93
2021/12/09 10:01:18;;;;;;;55.27;34.70;;;;;;;2.70;83.59;99546.11;1424489;91;22162;-93
2021/12/09 10:03:51;;;;;;;63.67;38.97;;;;;;;3.07;82.74;99536.66;1427607;91;22347;-92
2021/12/09 10:06:19;;;;;;;42.57;27.53;;;;;;;3.24;80.82;99537.94;1446427;90;23325;-92
2021/12/09 10:08:47;;;;;;;43.77;28.53;;;;;;;3.54;81.02;99534.66;1439781;91;21716;-90
2021/12/09 10:11:15;;;;;;;44.87;26.57;;;;;;;3.73;79.61;99552.78;1434815;91;21456;-89
2021/12/09 10:13:44;;;;;;;41.40;25.40;;;;;;;3.79;79.17;99557.51;1443855;91;22557;-90
2021/12/09 10:16:25;;;;;;;38.97;23.87;;;;;;;3.77;77.99;99560.72;1438784;90;21375;-93
2021/12/09 10:18:56;;;;;;;37.47;24.40;;;;;;;3.77;78.32;99567.27;1429508;91;21383;-92
2021/12/09 10:21:30;;;;;;;41.05;24.80;;;;;;;3.74;78.22;99559.66;1444255;91;22535;-92
2021/12/09 10:24:07;;;;;;;32.30;20.63;;;;;;;3.66;77.88;99547.70;1439778;90;21324;-93
2021/12/09 10:26:41;;;;;;;52.33;31.00;;;;;;;3.57;77.92;99535.72;1458047;91;21404;-92
2021/12/09 10:29:33;;;;;;;40.33;25.87;;;;;;;3.78;79.12;99527.06;1436478;90;21693;-92
2021/12/09 10:32:02;;;;;;;35.90;21.77;;;;;;;4.06;78.47;99526.45;1435222;91;21405;-92
2021/12/09 10:37:23;;;;;;;34.10;21.10;;;;;;;4.23;77.18;99529.42;1446464;91;21605;-92
2021/12/09 10:40:11;;;;;;;29.67;20.60;;;;;;;4.27;76.23;99526.42;1436543;91;21458;-92
2021/12/09 10:42:58;;;;;;;32.70;20.77;;;;;;;4.35;76.10;99537.58;1429388;90;21368;-93
2021/12/09 10:45:30;;;;;;;33.03;21.07;;;;;;;4.48;75.93;99546.04;1426209;91;22366;-91
2021/12/09 10:48:05;;;;;;;28.57;20.10;;;;;;;4.76;74.59;99542.38;1371514;94;22602;-92
2021/12/09 10:50:42;;;;;;;26.80;18.70;;;;;;;5.02;75.24;99536.68;1430739;91;22402;-91
2021/12/09 10:56:03;;;;;;;27.40;19.27;;;;;;;5.12;72.23;99520.47;1435812;91;21448;-92
2021/12/09 10:58:35;;;;;;;27.82;18.67;;;;;;;4.98;72.89;99522.52;1436108;91;21563;-91
2021/12/09 11:01:13;;;;;;;30.83;20.43;;;;;;;4.84;72.59;99520.27;1436190;90;22137;-91
2021/12/09 11:03:50;;;;;;;25.57;18.30;;;;;;;4.68;73.21;99521.23;1426470;91;21457;-91
2021/12/09 11:06:22;;;;;;;28.03;18.97;;;;;;;4.56;74.04;99508.71;1439688;91;21375;-91
2021/12/09 11:08:55;;;;;;;31.47;21.20;;;;;;;4.44;74.18;99502.73;1439808;91;22336;-91
2021/12/09 11:11:34;;;;;;;37.43;20.60;;;;;;;4.33;74.67;99489.71;1438432;91;21347;-92
2021/12/09 11:14:14;;;;;;;37.17;21.23;;;;;;;4.27;75.16;99486.31;1408169;92;21650;-92
2021/12/09 11:16:49;;;;;;;32.20;21.60;;;;;;;4.19;75.48;99495.29;1437951;91;21457;-92
2021/12/09 11:19:35;;;;;;;38.00;23.73;;;;;;;4.12;75.75;99495.47;1446395;91;21448;-92
2021/12/09 11:22:00;;;;;;;32.53;19.30;;;;;;;4.14;76.03;99496.16;1437525;91;21465;-92
2021/12/09 11:24:32;;;;;;;36.90;22.90;;;;;;;4.07;76.16;99491.44;1442220;91;21317;-93
2021/12/09 11:27:03;;;;;;;29.10;19.80;;;;;;;4.10;76.52;99482.98;1439119;91;21433;-92
2021/12/09 11:29:41;;;;;;;35.40;22.50;;;;;;;4.07;76.72;99478.34;1443827;88;21500;-92
2021/12/09 11:34:54;;;;;;;32.80;21.17;;;;;;;3.96;76.80;99473.17;1473766;88;22402;-92
2021/12/09 11:40:03;;;;;;;34.53;21.73;;;;;;;3.87;76.94;99473.95;1471305;88;21367;-91
2021/12/09 11:42:37;;;;;;;32.13;20.60;;;;;;;3.82;76.92;99465.64;1468949;88;21323;-92
2021/12/09 11:44:59;;;;;;;34.83;23.23;;;;;;;3.83;77.18;99479.10;1455106;88;22243;-92
2021/12/09 11:47:26;;;;;;;35.03;22.73;;;;;;;3.76;77.14;99468.77;1478026;88;22268;-91